Time;durP1;ratioP1;P1;durP2;ratioP2;P2;SDS_P1;SDS_P2;PMS_P1;PMS_P2;Temp;Humidity;BMP_temperature;BMP_pressure;BME280_temperature;BME280_humidity;BME280_pressure;Samples;Min_cycle;Max_cycle;Signal;HPM_P1;HPM_P2
2022/04/10 00:00:37;;;;;;;8.63;5.20;;;4.60;99.90;;;;;;4953374;28;20222;-79
2022/04/10 00:03:07;;;;;;;7.90;5.67;;;4.70;99.90;;;;;;4957878;28;20209;-81
2022/04/10 00:05:35;;;;;;;9.70;5.73;;;4.80;99.90;;;;;;4946826;29;20242;-79
2022/04/10 00:08:09;;;;;;;9.10;5.63;;;4.60;99.90;;;;;;4953711;28;20214;-79
2022/04/10 00:10:36;;;;;;;9.93;6.53;;;4.50;99.90;;;;;;4953984;28;20677;-79
2022/04/10 00:13:05;;;;;;;10.30;5.83;;;4.40;99.90;;;;;;4952470;28;20209;-79
2022/04/10 00:15:32;;;;;;;10.40;5.90;;;4.50;99.90;;;;;;4960309;28;20225;-78
2022/04/10 00:17:59;;;;;;;9.00;5.83;;;4.30;99.90;;;;;;4944615;29;20212;-80
2022/04/10 00:20:29;;;;;;;8.83;5.87;;;4.30;99.90;;;;;;4950718;28;20213;-79
2022/04/10 00:22:56;;;;;;;9.90;6.20;;;4.20;99.90;;;;;;4942550;29;20211;-79
2022/04/10 00:25:24;;;;;;;10.03;6.93;;;4.20;99.90;;;;;;4944631;29;20225;-78
2022/04/10 00:27:51;;;;;;;11.13;5.70;;;4.10;99.90;;;;;;4944649;29;20559;-79
2022/04/10 00:30:21;;;;;;;8.27;6.20;;;4.10;99.90;;;;;;4950849;29;20213;-79
2022/04/10 00:32:49;;;;;;;11.60;5.90;;;4.00;99.90;;;;;;4949345;29;20201;-81
2022/04/10 00:35:16;;;;;;;11.70;6.27;;;4.00;99.90;;;;;;4943067;29;20217;-79
2022/04/10 00:37:44;;;;;;;10.50;5.60;;;4.00;99.90;;;;;;4950638;28;20206;-79
2022/04/10 00:40:11;;;;;;;9.40;5.07;;;4.10;99.90;;;;;;4946354;28;20202;-78
2022/04/10 00:42:51;;;;;;;9.63;5.10;;;4.10;99.90;;;;;;4947406;28;20218;-78
2022/04/10 00:45:21;;;;;;;9.53;5.50;;;4.10;99.90;;;;;;4947749;28;20231;-78
2022/04/10 00:47:48;;;;;;;8.30;5.00;;;4.00;99.90;;;;;;4947964;28;20198;-78
2022/04/10 00:50:20;;;;;;;11.07;5.33;;;4.00;99.90;;;;;;4950469;28;20210;-78
2022/04/10 00:52:50;;;;;;;7.63;5.20;;;4.10;99.90;;;;;;4966194;28;20206;-78
2022/04/10 00:55:22;;;;;;;5.83;4.70;;;4.10;99.90;;;;;;4948434;28;20231;-79
2022/04/10 00:57:50;;;;;;;7.03;5.23;;;4.10;99.90;;;;;;4947690;28;20212;-79
2022/04/10 01:00:18;;;;;;;12.73;5.53;;;4.00;99.90;;;;;;4943433;29;20205;-78
2022/04/10 01:02:47;;;;;;;9.10;5.83;;;3.90;99.90;;;;;;4949035;29;20232;-79
2022/04/10 01:05:14;;;;;;;8.37;4.97;;;3.90;99.90;;;;;;4945214;28;20246;-79
2022/04/10 01:07:42;;;;;;;13.03;6.10;;;3.80;99.90;;;;;;4982994;23;20229;-77
2022/04/10 01:10:10;;;;;;;8.03;5.77;;;3.90;99.90;;;;;;4973645;28;20528;-77
2022/04/10 01:12:38;;;;;;;9.73;5.80;;;3.90;99.90;;;;;;4971376;28;20646;-77
2022/04/10 01:15:14;;;;;;;15.70;6.30;;;4.00;99.90;;;;;;4961280;28;20213;-77
2022/04/10 01:17:57;;;;;;;10.13;5.63;;;4.00;99.90;;;;;;4949531;28;20231;-77
2022/04/10 01:20:25;;;;;;;9.07;5.73;;;3.90;99.90;;;;;;4968164;28;20220;-77
2022/04/10 01:23:02;;;;;;;11.10;6.00;;;3.80;99.90;;;;;;4949588;28;20239;-78
2022/04/10 01:25:30;;;;;;;13.37;6.03;;;3.90;99.90;;;;;;4943199;28;20214;-77
2022/04/10 01:28:01;;;;;;;9.43;5.43;;;3.80;99.90;;;;;;4950745;28;20221;-77
2022/04/10 01:30:29;;;;;;;11.67;6.50;;;3.80;99.90;;;;;;4950636;28;20206;-77
2022/04/10 01:33:00;;;;;;;8.57;5.83;;;3.90;99.90;;;;;;4950107;28;20201;-77
2022/04/10 01:35:28;;;;;;;8.33;5.57;;;3.80;99.90;;;;;;4967587;28;20206;-77
2022/04/10 01:38:00;;;;;;;9.23;5.80;;;3.70;99.90;;;;;;4950144;28;20222;-77
2022/04/10 01:40:33;;;;;;;9.77;5.60;;;3.70;99.90;;;;;;4953632;28;20659;-77
2022/04/10 01:43:02;;;;;;;9.13;5.50;;;3.60;99.90;;;;;;4950251;29;20214;-77
2022/04/10 01:45:30;;;;;;;8.40;5.60;;;3.60;99.90;;;;;;4948862;28;20200;-77
2022/04/10 01:47:58;;;;;;;8.47;6.00;;;3.60;99.90;;;;;;4948147;28;20232;-77
2022/04/10 01:50:26;;;;;;;7.80;6.00;;;3.60;99.90;;;;;;4967650;28;20201;-77
2022/04/10 01:52:53;;;;;;;9.47;5.67;;;3.60;99.90;;;;;;4951739;28;20208;-77
2022/04/10 01:55:24;;;;;;;10.67;6.37;;;3.70;99.90;;;;;;4954062;28;20201;-78
2022/04/10 01:57:51;;;;;;;9.43;5.87;;;3.70;99.90;;;;;;4948194;28;20224;-76
2022/04/10 02:00:19;;;;;;;9.30;6.13;;;3.70;99.90;;;;;;4963543;28;20199;-76
2022/04/10 02:02:48;;;;;;;8.30;5.73;;;3.60;99.90;;;;;;4963654;28;20674;-77
2022/04/10 02:05:15;;;;;;;10.73;7.00;;;3.70;99.90;;;;;;4948754;28;20269;-77
2022/04/10 02:07:43;;;;;;;7.53;6.33;;;3.60;99.90;;;;;;4948690;28;20703;-77
2022/04/10 02:10:11;;;;;;;9.33;6.93;;;3.60;99.90;;;;;;4949416;28;20200;-78
2022/04/10 02:12:40;;;;;;;7.83;6.27;;;3.60;99.90;;;;;;4963325;28;20203;-76
2022/04/10 02:15:08;;;;;;;11.83;6.50;;;3.50;99.90;;;;;;4957361;28;20198;-77
2022/04/10 02:17:35;;;;;;;12.40;5.93;;;3.60;99.90;;;;;;4951063;28;20234;-76
2022/04/10 02:20:03;;;;;;;8.90;6.30;;;3.60;99.90;;;;;;4951580;28;20690;-76
2022/04/10 02:22:30;;;;;;;9.97;6.63;;;3.60;99.90;;;;;;4950510;28;20228;-77
2022/04/10 02:24:58;;;;;;;10.30;6.73;;;3.70;99.90;;;;;;4964057;28;20211;-77
2022/04/10 02:27:26;;;;;;;10.93;6.17;;;3.60;99.90;;;;;;4950002;28;20580;-77
2022/04/10 02:29:55;;;;;;;12.83;6.70;;;3.70;99.90;;;;;;4954344;28;20204;-77
2022/04/10 02:32:23;;;;;;;9.53;6.17;;;3.70;99.90;;;;;;4967568;28;20196;-77
2022/04/10 02:34:51;;;;;;;11.97;7.17;;;3.70;99.90;;;;;;4951315;28;20202;-77
2022/04/10 02:37:19;;;;;;;11.87;6.73;;;3.60;99.90;;;;;;4951785;29;20576;-76
2022/04/10 02:39:47;;;;;;;11.93;7.47;;;3.50;99.90;;;;;;4965040;28;20209;-77
2022/04/10 02:42:14;;;;;;;9.83;6.93;;;3.40;99.90;;;;;;4949599;28;20223;-77
2022/04/10 02:44:41;;;;;;;10.37;7.27;;;3.40;99.90;;;;;;4952970;28;20667;-76
2022/04/10 02:47:30;;;;;;;13.80;8.00;;;3.30;99.90;;;;;;4970054;28;20231;-78
2022/04/10 02:49:58;;;;;;;12.30;7.10;;;3.30;99.90;;;;;;4951644;28;20335;-77
2022/04/10 02:52:26;;;;;;;15.83;8.07;;;3.30;99.90;;;;;;4970510;28;20213;-76
2022/04/10 02:54:55;;;;;;;9.33;6.77;;;3.30;99.90;;;;;;4954101;28;20210;-76
2022/04/10 02:57:22;;;;;;;9.30;6.40;;;3.30;99.90;;;;;;4951098;28;20548;-78
2022/04/10 02:59:49;;;;;;;13.17;7.27;;;3.30;99.90;;;;;;4967189;28;20206;-76
2022/04/10 03:02:17;;;;;;;9.20;6.63;;;3.20;99.90;;;;;;4950939;28;20213;-76
2022/04/10 03:04:46;;;;;;;12.20;7.43;;;3.20;99.90;;;;;;4967412;28;20230;-77
2022/04/10 03:07:13;;;;;;;8.57;6.83;;;3.20;99.90;;;;;;4949747;28;20595;-77
2022/04/10 03:09:41;;;;;;;9.47;7.50;;;3.20;99.90;;;;;;4955279;28;20209;-77
2022/04/10 03:12:09;;;;;;;10.43;7.70;;;3.20;99.90;;;;;;4965736;28;20194;-76
2022/04/10 03:14:37;;;;;;;9.70;6.53;;;3.20;99.90;;;;;;4951633;28;20228;-77
2022/04/10 03:17:05;;;;;;;10.67;6.83;;;3.30;99.90;;;;;;4953762;28;20230;-78
2022/04/10 03:19:33;;;;;;;11.07;7.00;;;3.30;99.90;;;;;;4953475;28;20212;-77
2022/04/10 03:22:02;;;;;;;8.67;6.87;;;3.30;99.90;;;;;;4948207;28;20227;-77
2022/04/10 03:24:30;;;;;;;11.53;6.93;;;3.30;99.90;;;;;;4968418;28;20199;-77
2022/04/10 03:26:58;;;;;;;11.20;6.37;;;3.30;99.90;;;;;;4952631;28;20230;-77
2022/04/10 03:29:25;;;;;;;11.27;7.20;;;3.30;99.90;;;;;;4947647;28;20213;-76
2022/04/10 03:31:53;;;;;;;14.13;7.00;;;3.30;99.90;;;;;;4951559;28;20199;-78
2022/04/10 03:34:20;;;;;;;8.57;6.73;;;3.40;99.90;;;;;;4953861;29;20201;-77
2022/04/10 03:36:48;;;;;;;12.87;7.47;;;3.30;99.90;;;;;;4942784;28;20217;-78
2022/04/10 03:39:17;;;;;;;10.33;7.00;;;3.20;99.90;;;;;;4950308;28;20197;-77
2022/04/10 03:41:45;;;;;;;11.47;6.90;;;3.20;99.90;;;;;;4964500;28;20206;-79
2022/04/10 03:44:13;;;;;;;10.40;8.20;;;3.10;99.90;;;;;;4945180;29;20217;-77
2022/04/10 03:46:40;;;;;;;11.47;7.70;;;3.20;99.90;;;;;;4945428;28;20243;-77
2022/04/10 03:49:08;;;;;;;13.33;6.77;;;3.20;99.90;;;;;;4951153;28;20206;-75
2022/04/10 03:51:36;;;;;;;10.80;7.30;;;3.30;99.90;;;;;;4970895;28;20210;-77
2022/04/10 03:54:04;;;;;;;11.63;6.90;;;3.30;99.90;;;;;;4950128;28;20193;-76
2022/04/10 03:56:33;;;;;;;10.10;6.97;;;3.40;99.90;;;;;;4965632;28;20229;-76
2022/04/10 03:59:00;;;;;;;11.93;6.37;;;3.30;99.90;;;;;;4962642;28;20193;-76
2022/04/10 04:01:29;;;;;;;12.80;7.37;;;3.30;99.90;;;;;;4963446;28;20206;-75
2022/04/10 04:03:58;;;;;;;11.27;7.30;;;3.20;99.90;;;;;;4961438;28;20220;-74
2022/04/10 04:06:25;;;;;;;9.23;6.80;;;3.30;99.90;;;;;;4952540;29;20233;-74
2022/04/10 04:08:53;;;;;;;14.33;7.50;;;3.30;99.90;;;;;;4951537;29;20206;-74
2022/04/10 04:11:20;;;;;;;14.67;7.77;;;3.20;99.90;;;;;;4949867;29;20203;-74
2022/04/10 04:13:49;;;;;;;12.50;6.97;;;3.40;99.90;;;;;;4950355;28;20197;-74
2022/04/10 04:16:17;;;;;;;11.20;6.97;;;3.40;99.90;;;;;;4949242;29;20223;-74
2022/04/10 04:18:45;;;;;;;11.97;7.40;;;3.30;99.90;;;;;;4956541;28;20562;-74
2022/04/10 04:21:12;;;;;;;11.23;7.63;;;3.20;99.90;;;;;;4966199;28;20224;-74
2022/04/10 04:23:44;;;;;;;8.87;7.63;;;3.30;99.90;;;;;;4951431;28;20229;-74
2022/04/10 04:26:12;;;;;;;16.20;7.50;;;3.20;99.90;;;;;;4951182;29;20229;-74
2022/04/10 04:28:41;;;;;;;14.10;7.80;;;3.30;99.90;;;;;;4947019;28;20207;-74
2022/04/10 04:31:11;;;;;;;11.97;7.50;;;3.30;99.90;;;;;;4952502;28;20204;-74
2022/04/10 04:33:38;;;;;;;13.27;7.20;;;3.40;99.90;;;;;;4947781;29;20430;-74
2022/04/10 04:36:06;;;;;;;10.10;7.30;;;3.40;99.90;;;;;;4950106;28;20238;-74
2022/04/10 04:38:33;;;;;;;13.90;8.00;;;3.30;99.90;;;;;;4950382;28;20201;-74
2022/04/10 04:41:01;;;;;;;13.50;7.53;;;3.20;99.90;;;;;;4951143;28;20218;-74
2022/04/10 04:43:29;;;;;;;12.37;7.73;;;3.30;99.90;;;;;;4961411;28;20684;-74
2022/04/10 04:45:56;;;;;;;15.23;8.10;;;3.30;99.90;;;;;;4952775;28;20590;-74
2022/04/10 04:48:25;;;;;;;14.40;8.10;;;3.40;99.90;;;;;;4967269;28;20233;-74
2022/04/10 04:50:52;;;;;;;12.13;7.30;;;3.50;99.90;;;;;;4950986;28;20198;-74
2022/04/10 04:53:24;;;;;;;15.40;8.07;;;3.50;99.90;;;;;;4957963;28;20205;-74
2022/04/10 04:55:52;;;;;;;12.33;7.87;;;3.30;99.90;;;;;;4952228;28;20195;-74
2022/04/10 04:58:20;;;;;;;11.50;6.97;;;3.40;99.90;;;;;;4972863;28;20193;-75
2022/04/10 05:00:48;;;;;;;11.40;7.13;;;3.40;99.90;;;;;;4955213;28;20213;-75
2022/04/10 05:03:16;;;;;;;14.20;7.73;;;3.50;99.90;;;;;;4969116;28;20218;-74
2022/04/10 05:05:45;;;;;;;14.90;7.80;;;3.50;99.90;;;;;;4961288;28;20202;-74
2022/04/10 05:08:21;;;;;;;16.27;7.60;;;3.50;99.90;;;;;;4965028;28;20227;-74
2022/04/10 05:10:51;;;;;;;13.07;7.97;;;3.50;99.90;;;;;;4945717;29;20669;-74
2022/04/10 05:13:20;;;;;;;9.43;6.50;;;3.50;99.90;;;;;;4951934;28;20194;-74
2022/04/10 05:15:47;;;;;;;14.77;8.07;;;3.50;99.90;;;;;;4949347;28;20209;-74
2022/04/10 05:18:17;;;;;;;11.00;8.67;;;3.60;99.90;;;;;;4959663;28;20193;-74
2022/04/10 05:20:48;;;;;;;14.07;9.10;;;3.60;99.90;;;;;;4951399;28;20209;-74
2022/04/10 05:23:21;;;;;;;14.03;9.50;;;3.60;99.90;;;;;;4953178;29;20203;-75
2022/04/10 05:25:57;;;;;;;12.00;8.37;;;3.70;99.90;;;;;;4952072;29;20232;-74
2022/04/10 05:28:24;;;;;;;13.00;8.30;;;3.50;99.90;;;;;;4968593;28;20212;-74
2022/04/10 05:30:53;;;;;;;11.57;8.37;;;3.40;99.90;;;;;;4943479;28;20196;-75
2022/04/10 05:33:27;;;;;;;14.77;8.17;;;3.40;99.90;;;;;;4961652;28;20206;-74
2022/04/10 05:36:01;;;;;;;15.87;7.97;;;3.70;99.90;;;;;;4963755;28;20219;-74
2022/04/10 05:38:30;;;;;;;12.33;9.13;;;3.50;99.90;;;;;;4947191;28;20213;-74
2022/04/10 05:40:58;;;;;;;13.53;8.50;;;3.60;99.90;;;;;;4950938;28;20207;-74
2022/04/10 05:43:29;;;;;;;12.43;8.00;;;3.50;99.90;;;;;;4938455;29;20214;-74
2022/04/10 05:46:38;;;;;;;13.47;8.40;;;3.50;99.90;;;;;;4949573;28;20222;-75
2022/04/10 05:49:08;;;;;;;14.50;8.10;;;3.80;99.90;;;;;;4966146;28;20198;-74
2022/04/10 05:51:40;;;;;;;12.23;8.30;;;3.90;99.90;;;;;;4967307;28;20247;-74
2022/04/10 05:54:14;;;;;;;12.63;8.10;;;3.70;99.90;;;;;;4969731;28;20654;-74
2022/04/10 05:56:49;;;;;;;13.63;8.20;;;3.70;99.90;;;;;;4938463;28;20653;-74
2022/04/10 05:59:18;;;;;;;13.53;8.67;;;3.70;99.90;;;;;;4970821;28;20208;-74
2022/04/10 06:01:47;;;;;;;15.10;8.53;;;3.60;99.90;;;;;;4946378;29;20210;-74
2022/04/10 06:04:14;;;;;;;13.30;7.83;;;3.70;99.90;;;;;;4965485;28;20209;-74
2022/04/10 06:06:43;;;;;;;18.47;8.10;;;3.80;99.90;;;;;;4968099;28;20222;-74
2022/04/10 06:09:24;;;;;;;16.63;8.80;;;3.90;99.90;;;;;;4957130;28;20229;-74
2022/04/10 06:11:53;;;;;;;10.80;8.03;;;4.00;99.90;;;;;;4954954;29;20207;-74
2022/04/10 06:14:24;;;;;;;10.83;7.77;;;3.90;99.90;;;;;;4955113;28;20198;-74
2022/04/10 06:16:52;;;;;;;14.70;8.17;;;4.00;99.90;;;;;;4953863;28;20233;-74
2022/04/10 06:19:30;;;;;;;11.77;7.90;;;3.90;99.90;;;;;;4954271;29;20207;-74
2022/04/10 06:21:59;;;;;;;11.03;7.47;;;4.10;99.90;;;;;;4954760;29;20209;-74
2022/04/10 06:24:27;;;;;;;13.73;8.47;;;4.30;99.90;;;;;;4954589;28;20221;-74
2022/04/10 06:27:04;;;;;;;13.47;9.20;;;4.50;99.90;;;;;;4954058;29;20236;-74
2022/04/10 06:29:33;;;;;;;14.60;8.47;;;4.40;99.90;;;;;;4930025;28;20211;-74
2022/04/10 06:32:04;;;;;;;11.23;7.10;;;4.40;99.90;;;;;;4953068;28;20199;-74
2022/04/10 06:34:54;;;;;;;11.03;7.63;;;4.50;99.90;;;;;;4952813;28;20214;-74
2022/04/10 06:37:23;;;;;;;11.73;8.00;;;4.70;99.90;;;;;;4953566;28;20228;-75
2022/04/10 06:39:55;;;;;;;12.97;8.10;;;4.80;99.90;;;;;;4954530;28;20202;-73
2022/04/10 06:42:25;;;;;;;10.60;7.97;;;4.40;99.90;;;;;;4945472;28;20206;-73
2022/04/10 06:45:08;;;;;;;15.60;8.47;;;4.40;99.90;;;;;;4945808;28;20617;-74
2022/04/10 06:47:58;;;;;;;16.13;9.27;;;4.50;99.90;;;;;;4939484;28;20229;-74
2022/04/10 06:50:43;;;;;;;18.10;8.53;;;4.60;99.90;;;;;;4949041;28;20214;-74
2022/04/10 06:53:18;;;;;;;11.37;8.10;;;4.80;99.90;;;;;;4961141;28;20205;-74
2022/04/10 06:55:50;;;;;;;10.40;8.27;;;4.90;99.90;;;;;;4969338;28;20227;-74
2022/04/10 06:58:19;;;;;;;13.30;8.33;;;5.00;99.90;;;;;;4949423;28;20196;-74
2022/04/10 07:00:48;;;;;;;13.70;8.07;;;5.20;99.90;;;;;;4955049;28;20206;-74
2022/04/10 07:03:17;;;;;;;14.40;8.60;;;5.20;99.90;;;;;;4970092;28;20202;-74
2022/04/10 07:05:44;;;;;;;17.73;9.47;;;5.20;99.90;;;;;;4969712;28;20248;-74
2022/04/10 07:08:21;;;;;;;11.77;9.30;;;5.10;99.90;;;;;;4957551;23;20721;-73
2022/04/10 07:10:48;;;;;;;13.83;8.37;;;5.30;99.90;;;;;;4916771;29;20202;-74
2022/04/10 07:13:25;;;;;;;14.47;8.70;;;5.50;99.90;;;;;;4933185;29;20214;-75
2022/04/10 07:15:53;;;;;;;16.10;8.20;;;5.60;99.90;;;;;;4932919;29;20207;-74
2022/04/10 07:18:22;;;;;;;11.40;7.87;;;5.70;99.90;;;;;;4932199;29;20223;-75
2022/04/10 07:20:53;;;;;;;10.73;7.70;;;6.00;99.90;;;;;;4933383;29;20204;-73
2022/04/10 07:26:10;;;;;;;10.83;6.03;;;6.10;99.90;;;;;;4932980;29;20200;-73
2022/04/10 07:28:38;;;;;;;11.70;6.40;;;6.10;99.90;;;;;;4931365;29;20228;-74
2022/04/10 07:31:07;;;;;;;9.97;6.13;;;6.00;99.90;;;;;;4932378;29;20203;-74
2022/04/10 07:33:37;;;;;;;9.70;6.33;;;6.10;99.90;;;;;;4932753;28;20201;-73
2022/04/10 07:36:15;;;;;;;11.93;6.27;;;6.10;99.90;;;;;;4933104;29;20204;-74
2022/04/10 07:38:44;;;;;;;10.57;6.30;;;6.30;99.90;;;;;;4931731;29;20232;-74
2022/04/10 07:41:18;;;;;;;12.00;7.13;;;6.30;99.90;;;;;;4932488;29;20212;-73
2022/04/10 07:43:50;;;;;;;10.67;6.50;;;6.20;99.90;;;;;;4932390;29;20217;-74
2022/04/10 07:49:07;;;;;;;9.00;5.70;;;6.40;99.90;;;;;;4935983;29;20219;-73
2022/04/10 07:51:42;;;;;;;10.57;6.17;;;6.50;99.90;;;;;;4917111;29;20207;-74
2022/04/10 07:54:41;;;;;;;6.47;5.33;;;6.60;99.90;;;;;;4933411;29;20196;-74
2022/04/10 07:57:08;;;;;;;10.07;5.93;;;6.60;99.90;;;;;;4931415;29;20690;-78
2022/04/10 07:59:35;;;;;;;9.83;5.53;;;6.70;99.90;;;;;;4932269;29;20209;-75
2022/04/10 08:02:04;;;;;;;8.10;5.33;;;6.70;99.90;;;;;;4916300;29;20207;-73
2022/04/10 08:04:35;;;;;;;10.67;5.40;;;6.60;99.90;;;;;;4916273;29;20223;-73
2022/04/10 08:07:02;;;;;;;8.57;5.37;;;6.70;99.90;;;;;;4917186;29;20236;-74
2022/04/10 08:09:29;;;;;;;12.77;5.40;;;6.90;99.90;;;;;;4916035;29;20221;-74
2022/04/10 08:11:58;;;;;;;9.97;5.43;;;6.80;99.90;;;;;;4916466;29;20559;-73
2022/04/10 08:15:16;;;;;;;8.97;5.27;;;6.90;99.90;;;;;;4915600;29;20201;-74
2022/04/10 08:17:44;;;;;;;8.93;5.17;;;7.00;99.90;;;;;;4927856;29;20250;-74
2022/04/10 08:20:12;;;;;;;7.73;5.03;;;7.00;99.90;;;;;;4931939;29;20215;-73
2022/04/10 08:22:40;;;;;;;9.87;5.07;;;7.10;99.90;;;;;;4917299;29;20197;-74
2022/04/10 08:25:09;;;;;;;10.60;5.00;;;7.00;99.90;;;;;;4916091;29;20225;-74
2022/04/10 08:27:38;;;;;;;11.03;4.87;;;7.20;99.90;;;;;;4916142;29;20225;-74
2022/04/10 08:30:09;;;;;;;9.83;4.80;;;7.30;99.90;;;;;;4935775;29;20206;-75
2022/04/10 08:32:37;;;;;;;7.63;4.67;;;7.30;99.90;;;;;;4917340;29;20193;-73
2022/04/10 08:35:20;;;;;;;4.97;3.70;;;7.40;99.90;;;;;;4916345;29;20209;-74
2022/04/10 08:37:48;;;;;;;7.47;4.00;;;7.30;99.90;;;;;;4931026;29;20230;-75
2022/04/10 08:40:15;;;;;;;5.63;3.20;;;7.30;99.90;;;;;;4931288;28;20206;-74
2022/04/10 08:42:44;;;;;;;8.20;3.50;;;7.50;99.90;;;;;;4930761;29;20222;-74
2022/04/10 08:45:12;;;;;;;9.03;3.07;;;7.50;99.70;;;;;;4931196;29;20234;-73
2022/04/10 08:47:39;;;;;;;7.97;2.83;;;7.50;99.90;;;;;;4930838;29;20700;-73
2022/04/10 08:50:08;;;;;;;6.77;3.17;;;7.50;99.30;;;;;;4914847;29;20202;-73
2022/04/10 08:52:36;;;;;;;5.87;3.07;;;7.60;98.80;;;;;;4930885;29;20218;-74
2022/04/10 08:55:04;;;;;;;5.70;3.10;;;7.60;98.60;;;;;;4931252;29;20221;-74
2022/04/10 08:57:31;;;;;;;5.93;2.97;;;7.50;98.50;;;;;;4930292;29;20229;-73
2022/04/10 09:00:00;;;;;;;4.70;2.67;;;7.60;98.00;;;;;;4934641;29;20221;-74
2022/04/10 09:02:27;;;;;;;7.70;2.73;;;7.70;96.90;;;;;;4916089;29;20207;-74
2022/04/10 09:04:55;;;;;;;4.87;2.50;;;7.70;95.90;;;;;;4930638;29;20211;-74
2022/04/10 09:07:22;;;;;;;9.00;3.37;;;8.10;96.50;;;;;;4908158;29;20234;-74
2022/04/10 09:10:01;;;;;;;3.17;2.20;;;8.00;96.40;;;;;;4930941;29;20207;-75
2022/04/10 09:12:28;;;;;;;4.87;2.50;;;7.90;95.80;;;;;;4930314;29;20675;-75
2022/04/10 09:15:05;;;;;;;5.13;2.53;;;7.70;95.50;;;;;;4929767;29;20203;-73
2022/04/10 09:17:32;;;;;;;5.97;2.23;;;7.60;95.60;;;;;;4911312;29;20449;-73
2022/04/10 09:20:01;;;;;;;6.73;2.53;;;7.50;95.40;;;;;;4916601;29;20204;-73
2022/04/10 09:22:30;;;;;;;6.17;3.13;;;7.60;95.90;;;;;;4931505;29;20533;-73
2022/04/10 09:25:22;;;;;;;4.20;2.47;;;7.50;95.80;;;;;;4912225;29;20241;-73
2022/04/10 09:27:52;;;;;;;3.47;2.67;;;7.60;96.20;;;;;;4925357;29;20632;-73
2022/04/10 09:30:34;;;;;;;6.13;3.63;;;7.50;96.90;;;;;;4908717;29;20219;-74
2022/04/10 09:33:01;;;;;;;8.53;4.03;;;7.20;99.00;;;;;;4928447;29;20209;-75
2022/04/10 09:35:43;;;;;;;7.00;3.93;;;7.10;99.90;;;;;;4928271;29;20210;-73
2022/04/10 09:38:11;;;;;;;6.57;3.73;;;7.10;99.90;;;;;;4922876;29;20226;-74
2022/04/10 09:40:48;;;;;;;5.63;3.63;;;7.20;99.90;;;;;;4924494;29;20217;-74
2022/04/10 09:43:16;;;;;;;4.70;3.70;;;7.30;99.90;;;;;;4915348;29;20202;-73
2022/04/10 09:45:47;;;;;;;6.47;3.80;;;7.30;99.90;;;;;;4937749;28;20722;-73
2022/04/10 09:48:20;;;;;;;6.53;3.43;;;7.20;99.90;;;;;;4925381;29;20739;-74
2022/04/10 09:51:01;;;;;;;7.87;3.87;;;7.40;99.90;;;;;;4906740;29;20202;-74
2022/04/10 09:53:30;;;;;;;5.77;3.23;;;7.50;99.90;;;;;;4921119;29;20214;-75
2022/04/10 09:56:00;;;;;;;8.07;2.90;;;7.60;99.90;;;;;;4910989;29;20202;-74
2022/04/10 09:58:27;;;;;;;5.47;3.53;;;7.70;99.90;;;;;;4919909;29;20234;-74
2022/04/10 10:00:57;;;;;;;3.90;3.10;;;7.80;99.90;;;;;;4923273;29;20683;-73
2022/04/10 10:03:31;;;;;;;4.83;3.00;;;8.10;99.90;;;;;;4924496;29;20217;-73
2022/04/10 10:05:59;;;;;;;7.03;3.73;;;8.20;99.10;;;;;;4925232;29;20214;-75
2022/04/10 10:08:28;;;;;;;5.97;3.53;;;8.40;99.20;;;;;;4922867;29;20877;-74
2022/04/10 10:10:57;;;;;;;7.23;3.23;;;8.40;98.90;;;;;;4909108;29;20207;-75
2022/04/10 10:13:26;;;;;;;7.10;2.47;;;8.30;98.10;;;;;;4931758;29;20210;-72
2022/04/10 10:15:56;;;;;;;5.30;2.13;;;8.00;97.40;;;;;;4909427;29;20203;-76
2022/04/10 10:18:25;;;;;;;7.93;2.20;;;9.30;97.10;;;;;;4904206;29;20222;-73
2022/04/10 10:20:53;;;;;;;3.47;1.77;;;9.40;92.00;;;;;;4925390;29;20206;-73
2022/04/10 10:23:22;;;;;;;3.07;1.63;;;8.80;93.00;;;;;;4925648;29;20214;-74
2022/04/10 10:26:02;;;;;;;5.40;2.23;;;9.00;93.30;;;;;;4928077;29;20578;-73
2022/04/10 10:28:55;;;;;;;2.43;1.83;;;9.00;93.20;;;;;;4931441;29;20233;-73
2022/04/10 10:31:36;;;;;;;2.83;2.07;;;9.00;92.40;;;;;;4932056;29;20195;-73
2022/04/10 10:34:15;;;;;;;2.83;1.70;;;8.90;91.60;;;;;;4934891;29;20219;-73
2022/04/10 10:36:43;;;;;;;4.77;1.40;;;8.70;90.30;;;;;;4909834;29;20207;-72
2022/04/10 10:39:10;;;;;;;4.67;1.77;;;8.70;90.80;;;;;;4927884;29;20210;-76
2022/04/10 10:41:39;;;;;;;3.03;1.40;;;8.80;91.30;;;;;;4926558;29;20219;-74
2022/04/10 10:44:37;;;;;;;3.10;1.57;;;8.70;90.70;;;;;;4911206;29;20203;-73
2022/04/10 10:47:15;;;;;;;3.03;1.70;;;8.80;90.20;;;;;;4925421;29;20231;-73
2022/04/10 10:49:45;;;;;;;3.33;1.60;;;8.90;87.60;;;;;;4929196;29;20210;-74
2022/04/10 10:52:13;;;;;;;1.83;1.30;;;9.00;87.80;;;;;;4930027;29;20699;-73
2022/04/10 10:54:45;;;;;;;3.57;1.80;;;9.00;88.00;;;;;;4918915;29;20203;-73
2022/04/10 10:57:29;;;;;;;3.53;1.60;;;8.80;89.60;;;;;;4915873;29;20225;-73
2022/04/10 11:00:12;;;;;;;7.77;1.73;;;8.70;89.90;;;;;;4916929;29;20195;-73
2022/04/10 11:02:46;;;;;;;3.60;1.70;;;8.80;90.60;;;;;;4931972;29;20210;-72
2022/04/10 11:05:29;;;;;;;4.53;2.13;;;9.10;89.00;;;;;;4930088;29;20203;-73
2022/04/10 11:07:58;;;;;;;2.77;1.40;;;9.10;88.30;;;;;;4929830;29;20232;-73
2022/04/10 11:10:36;;;;;;;3.43;1.40;;;9.20;88.60;;;;;;4933287;29;20222;-75
2022/04/10 11:13:05;;;;;;;1.70;1.10;;;8.90;86.10;;;;;;4932881;29;20206;-73
2022/04/10 11:15:34;;;;;;;2.50;1.30;;;8.80;84.00;;;;;;4917825;29;20203;-73
2022/04/10 11:18:41;;;;;;;3.37;1.10;;;8.90;84.90;;;;;;4917318;29;20223;-73
2022/04/10 11:21:14;;;;;;;4.73;1.57;;;9.00;83.20;;;;;;4918182;29;20533;-73
2022/04/10 11:23:45;;;;;;;1.97;1.40;;;8.90;83.20;;;;;;4931061;29;20565;-74
2022/04/10 11:26:19;;;;;;;4.17;1.30;;;8.90;84.00;;;;;;4926033;29;20222;-73
2022/04/10 11:29:25;;;;;;;3.90;1.40;;;9.30;83.20;;;;;;4928622;29;20230;-75
2022/04/10 11:31:54;;;;;;;1.70;1.03;;;9.60;81.00;;;;;;4925646;29;20207;-74
2022/04/10 11:34:25;;;;;;;3.73;1.53;;;9.90;79.90;;;;;;4911150;29;20210;-73
2022/04/10 11:36:55;;;;;;;2.47;1.20;;;9.80;78.70;;;;;;4930726;29;20202;-74
2022/04/10 11:39:28;;;;;;;3.47;1.03;;;9.90;76.50;;;;;;4930289;29;20199;-73
2022/04/10 11:41:59;;;;;;;3.53;1.43;;;10.30;75.40;;;;;;4934180;29;20214;-74
2022/04/10 11:44:27;;;;;;;1.73;1.13;;;10.00;75.60;;;;;;4929373;29;20226;-73
2022/04/10 11:46:54;;;;;;;1.10;0.70;;;9.80;74.80;;;;;;4916494;29;20218;-73
2022/04/10 11:49:23;;;;;;;2.27;1.10;;;9.90;69.20;;;;;;4911485;29;20210;-74
2022/04/10 11:51:54;;;;;;;1.33;0.93;;;10.10;67.60;;;;;;4929380;29;20206;-74
2022/04/10 11:54:31;;;;;;;2.30;0.83;;;10.40;66.90;;;;;;4914140;29;20207;-74
2022/04/10 11:57:00;;;;;;;2.07;0.93;;;10.70;66.30;;;;;;4928572;29;20229;-73
2022/04/10 11:59:33;;;;;;;2.80;1.17;;;11.00;66.50;;;;;;4929086;29;20203;-73
2022/04/10 12:02:01;;;;;;;1.97;1.00;;;10.60;67.20;;;;;;4919135;29;20202;-73
2022/04/10 12:04:30;;;;;;;1.50;1.03;;;10.40;65.40;;;;;;4914966;29;20203;-74
2022/04/10 12:07:12;;;;;;;2.27;1.00;;;10.20;64.20;;;;;;4917230;29;20592;-73
2022/04/10 12:09:39;;;;;;;1.03;0.83;;;10.50;62.80;;;;;;4923330;29;20707;-74
2022/04/10 12:12:07;;;;;;;3.63;1.07;;;11.10;63.40;;;;;;4930921;28;20211;-73
2022/04/10 12:14:35;;;;;;;2.30;1.23;;;10.90;63.20;;;;;;4930724;29;20716;-73
2022/04/10 12:17:03;;;;;;;2.73;1.07;;;10.50;63.20;;;;;;4946432;28;20219;-76
2022/04/10 12:19:34;;;;;;;1.47;0.93;;;10.20;64.10;;;;;;4930059;29;20215;-74
2022/04/10 12:22:03;;;;;;;1.57;1.00;;;10.10;63.70;;;;;;4934980;29;20211;-73
2022/04/10 12:24:31;;;;;;;1.73;0.90;;;10.40;64.80;;;;;;4915201;29;20206;-74
2022/04/10 12:26:59;;;;;;;2.57;1.43;;;11.00;61.90;;;;;;4914486;29;20587;-75
2022/04/10 12:29:30;;;;;;;1.90;1.03;;;10.80;60.90;;;;;;4912626;29;20674;-75
2022/04/10 12:31:59;;;;;;;1.23;1.00;;;10.70;60.90;;;;;;4930203;29;20211;-73
2022/04/10 12:34:34;;;;;;;1.63;1.00;;;10.70;64.20;;;;;;4930793;29;20199;-73
2022/04/10 12:37:08;;;;;;;3.40;1.23;;;10.60;64.40;;;;;;4915417;29;20222;-75
2022/04/10 12:39:36;;;;;;;2.43;0.80;;;10.80;64.80;;;;;;4913890;29;20203;-74
2022/04/10 12:42:07;;;;;;;2.60;1.00;;;10.50;61.00;;;;;;4913383;29;20217;-73
2022/04/10 12:44:36;;;;;;;1.20;0.90;;;10.40;61.80;;;;;;4914920;29;20206;-73
2022/04/10 12:47:04;;;;;;;1.80;0.80;;;10.50;63.30;;;;;;4915425;29;20231;-74
2022/04/10 12:49:32;;;;;;;2.07;1.37;;;10.20;63.40;;;;;;4913280;29;20211;-73
2022/04/10 12:52:03;;;;;;;1.80;0.97;;;10.50;64.90;;;;;;4927663;29;20218;-73
2022/04/10 12:54:35;;;;;;;2.20;1.07;;;10.60;63.60;;;;;;4930263;29;20210;-73
2022/04/10 12:57:03;;;;;;;3.10;1.10;;;10.50;63.00;;;;;;4916268;29;20223;-75
2022/04/10 12:59:40;;;;;;;1.17;0.70;;;10.40;63.10;;;;;;4914425;29;20569;-73
2022/04/10 13:02:21;;;;;;;2.00;1.07;;;10.40;62.90;;;;;;4911094;29;20224;-73
2022/04/10 13:04:58;;;;;;;1.10;1.00;;;10.50;63.30;;;;;;4932111;28;20226;-73
2022/04/10 13:07:26;;;;;;;1.60;1.20;;;10.60;62.50;;;;;;4929219;29;20728;-73
2022/04/10 13:10:04;;;;;;;3.83;1.10;;;10.70;61.40;;;;;;4927686;29;20218;-74
2022/04/10 13:12:34;;;;;;;2.87;0.97;;;10.70;60.20;;;;;;4915104;29;20190;-73
2022/04/10 13:15:01;;;;;;;2.00;1.23;;;10.70;61.40;;;;;;4914801;29;20202;-73